createdAt,value
2017-08-10T00:00:00.498Z,20.67
2017-08-10T00:00:45.922Z,20.67
2017-08-10T00:01:45.959Z,20.69
2017-08-10T00:02:45.987Z,20.66
2017-08-10T00:03:45.994Z,20.73
2017-08-10T00:04:46.030Z,20.7
2017-08-10T00:05:46.053Z,20.64
2017-08-10T00:06:46.086Z,20.69
2017-08-10T00:08:45.511Z,20.67
2017-08-10T00:09:46.160Z,20.67
2017-08-10T00:10:45.871Z,20.67
2017-08-10T00:11:46.218Z,20.55
2017-08-10T00:12:46.239Z,20.58
2017-08-10T00:13:46.245Z,20.57
2017-08-10T00:14:46.264Z,20.58
2017-08-10T00:15:46.311Z,20.55
2017-08-10T00:17:00.929Z,20.61
2017-08-10T00:17:46.347Z,20.58
2017-08-10T00:19:00.976Z,20.66
2017-08-10T00:19:46.453Z,20.66
2017-08-10T00:20:46.434Z,20.52
2017-08-10T00:22:01.055Z,20.5
2017-08-10T00:22:46.482Z,20.5
2017-08-10T00:23:46.515Z,20.61
2017-08-10T00:24:46.231Z,20.58
2017-08-10T00:25:46.254Z,20.62
2017-08-10T00:26:46.587Z,20.61
2017-08-10T00:27:46.616Z,20.67
2017-08-10T00:28:46.640Z,20.66
2017-08-10T00:29:46.646Z,20.64
2017-08-10T00:30:46.691Z,20.67
2017-08-10T00:31:46.706Z,20.62
2017-08-10T00:33:01.026Z,20.58
2017-08-10T00:33:46.451Z,20.59
2017-08-10T00:34:46.773Z,20.57
2017-08-10T00:35:46.519Z,20.59
2017-08-10T00:36:46.832Z,20.61
2017-08-10T00:38:01.457Z,20.51
2017-08-10T00:38:46.867Z,20.55
2017-08-10T00:39:46.606Z,20.5
2017-08-10T00:41:01.521Z,20.36
2017-08-10T00:41:46.970Z,20.39
2017-08-10T00:42:46.681Z,20.42
2017-08-10T00:45:46.735Z,20.41
2017-08-10T00:46:46.769Z,20.43
2017-08-10T00:47:46.801Z,20.51
2017-08-10T00:48:46.833Z,20.5
2017-08-10T00:49:46.859Z,20.42
2017-08-10T00:50:47.183Z,20.36
2017-08-10T00:51:47.213Z,20.41
2017-08-10T00:53:01.825Z,20.32
2017-08-10T00:54:01.861Z,20.33
2017-08-10T00:54:47.281Z,20.2
2017-08-10T00:55:47.301Z,20.24
2017-08-10T00:56:47.318Z,20.16
2017-08-10T00:57:47.368Z,20.23
2017-08-10T00:58:47.382Z,20.18
2017-08-10T00:59:47.410Z,20.23
2017-08-10T01:00:47.421Z,20.21
2017-08-10T01:01:47.157Z,20.23
2017-08-10T01:02:47.178Z,20.21
2017-08-10T01:03:47.517Z,20.2
2017-08-10T01:04:47.543Z,20.23
2017-08-10T01:05:47.562Z,20.33
2017-08-10T01:06:47.590Z,20.23
2017-08-10T01:07:47.595Z,20.39
2017-08-10T01:08:47.648Z,20.38
2017-08-10T01:10:02.264Z,20.38
2017-08-10T01:10:47.696Z,20.5
2017-08-10T01:11:47.774Z,20.52
2017-08-10T01:12:47.744Z,20.51
2017-08-10T01:13:47.771Z,20.36
2017-08-10T01:14:47.783Z,20.47
2017-08-10T01:15:47.813Z,20.43
2017-08-10T01:16:47.820Z,20.39
2017-08-10T01:17:47.863Z,20.43
2017-08-10T01:18:47.888Z,20.42
2017-08-10T01:20:02.512Z,20.47
2017-08-10T01:20:47.944Z,20.38
2017-08-10T01:21:47.970Z,20.41
2017-08-10T01:22:48.007Z,20.5
2017-08-10T01:23:48.034Z,20.38
2017-08-10T01:25:02.627Z,20.39
2017-08-10T01:25:48.076Z,20.38
2017-08-10T01:26:48.086Z,20.47
2017-08-10T01:27:47.807Z,20.39
2017-08-10T01:28:47.832Z,20.42
2017-08-10T01:29:48.178Z,20.41
2017-08-10T01:30:48.180Z,20.35
2017-08-10T01:31:48.221Z,20.32
2017-08-10T01:33:02.843Z,20.41
2017-08-10T01:33:47.943Z,20.33
2017-08-10T01:34:48.306Z,20.23
2017-08-10T01:35:48.315Z,20.21
2017-08-10T01:36:48.035Z,20.17
2017-08-10T01:37:48.356Z,20.05
2017-08-10T01:38:48.393Z,20.02
2017-08-10T01:39:48.414Z,19.96
2017-08-10T01:40:48.444Z,19.98
2017-08-10T01:41:48.160Z,19.81
2017-08-10T01:42:48.793Z,19.81
2017-08-10T01:43:48.209Z,19.81
2017-08-10T01:44:48.234Z,19.78
2017-08-10T01:45:48.253Z,19.78
2017-08-10T01:46:48.284Z,19.77
2017-08-10T01:47:48.631Z,19.74
2017-08-10T01:48:48.331Z,19.81
2017-08-10T01:49:48.659Z,19.74
2017-08-10T01:50:48.700Z,19.59
2017-08-10T01:51:48.715Z,19.74
2017-08-10T01:52:48.436Z,19.61
2017-08-10T01:53:48.755Z,19.74
2017-08-10T01:54:48.800Z,19.56
2017-08-10T01:55:48.826Z,19.59
2017-08-10T01:57:03.444Z,19.58
2017-08-10T01:57:48.566Z,19.55
2017-08-10T01:58:48.903Z,19.48
2017-08-10T02:00:48.944Z,19.39
2017-08-10T02:01:48.993Z,19.39
2017-08-10T02:02:48.997Z,19.32
2017-08-10T02:03:49.027Z,19.23
2017-08-10T02:04:48.719Z,19.21
2017-08-10T02:05:49.070Z,19.19
2017-08-10T02:06:48.784Z,19.21
2017-08-10T02:07:48.803Z,19.21
2017-08-10T02:08:49.145Z,19.16
2017-08-10T02:09:49.178Z,19.23
2017-08-10T02:10:49.198Z,19.11
2017-08-10T02:11:49.219Z,19.13
2017-08-10T02:13:03.853Z,19.11
2017-08-10T02:13:49.279Z,19.13
2017-08-10T02:14:48.972Z,19.16
2017-08-10T02:15:49.023Z,19.06
2017-08-10T02:16:49.354Z,18.95
2017-08-10T02:17:49.385Z,18.95
2017-08-10T02:18:49.385Z,18.98
2017-08-10T02:19:49.425Z,18.99
2017-08-10T02:20:49.455Z,18.98
2017-08-10T02:21:49.478Z,19
2017-08-10T02:22:49.192Z,19
2017-08-10T02:23:48.902Z,18.98
2017-08-10T02:25:04.145Z,18.94
2017-08-10T02:25:49.567Z,18.88
2017-08-10T02:26:49.585Z,18.84
2017-08-10T02:28:03.911Z,18.81
2017-08-10T02:29:04.235Z,18.88
2017-08-10T02:29:49.679Z,18.75
2017-08-10T02:30:49.685Z,18.76
2017-08-10T02:31:49.721Z,18.72
2017-08-10T02:32:49.737Z,18.57
2017-08-10T02:33:49.773Z,18.57
2017-08-10T02:34:49.799Z,18.57
2017-08-10T02:35:49.816Z,18.42
2017-08-10T02:36:49.850Z,18.39
2017-08-10T02:37:49.871Z,18.5
2017-08-10T02:38:49.919Z,18.35
2017-08-10T02:39:49.912Z,18.44
2017-08-10T02:40:49.953Z,18.42
2017-08-10T02:41:49.976Z,18.37
2017-08-10T02:42:49.978Z,18.33
2017-08-10T02:43:50.015Z,18.36
2017-08-10T02:45:04.645Z,18.29
2017-08-10T02:46:50.122Z,18.23
2017-08-10T02:47:50.119Z,18.27
2017-08-10T02:49:50.161Z,18.2
2017-08-10T02:50:50.195Z,18.1
2017-08-10T02:51:50.216Z,18.1
2017-08-10T02:52:50.244Z,18.14
2017-08-10T02:54:49.970Z,18.1
2017-08-10T02:55:50.009Z,18
2017-08-10T02:56:50.335Z,17.99
2017-08-10T02:57:50.047Z,17.97
2017-08-10T02:59:04.980Z,17.95
2017-08-10T03:00:04.703Z,17.92
2017-08-10T03:00:50.130Z,17.77
2017-08-10T03:01:50.453Z,17.78
2017-08-10T03:02:50.498Z,17.75
2017-08-10T03:03:50.203Z,17.78
2017-08-10T03:04:50.553Z,17.64
2017-08-10T03:05:50.554Z,17.72
2017-08-10T03:06:50.591Z,17.7
2017-08-10T03:07:50.286Z,17.68
2017-08-10T03:08:50.624Z,17.71
2017-08-10T03:10:50.682Z,17.75
2017-08-10T03:11:50.713Z,17.74
2017-08-10T03:12:50.738Z,17.74
2017-08-10T03:13:50.737Z,17.74
2017-08-10T03:14:50.777Z,17.74
2017-08-10T03:15:50.812Z,17.62
2017-08-10T03:16:50.823Z,17.64
2017-08-10T03:17:50.859Z,17.56
2017-08-10T03:18:50.884Z,17.58
2017-08-10T03:19:50.906Z,17.58
2017-08-10T03:20:50.611Z,17.41
2017-08-10T03:21:50.646Z,17.4
2017-08-10T03:23:50.998Z,17.49
2017-08-10T03:24:50.711Z,17.49
2017-08-10T03:25:51.042Z,17.55
2017-08-10T03:26:51.056Z,17.38
2017-08-10T03:27:51.105Z,17.3
2017-08-10T03:28:51.134Z,17.34
2017-08-10T03:29:51.155Z,17.3
2017-08-10T03:30:51.180Z,17.3
2017-08-10T03:32:05.789Z,17.33
2017-08-10T03:32:50.914Z,17.21
2017-08-10T03:33:51.260Z,17.28
2017-08-10T03:34:51.265Z,17.26
2017-08-10T03:35:50.982Z,17.28
2017-08-10T03:38:05.930Z,17.15
2017-08-10T03:38:51.370Z,17.31
2017-08-10T03:39:51.396Z,17.31
2017-08-10T03:40:51.416Z,17.26
2017-08-10T03:41:51.149Z,17.3
2017-08-10T03:42:51.461Z,17.26
2017-08-10T03:43:51.469Z,17.26
2017-08-10T03:45:51.543Z,17.25
2017-08-10T03:46:51.552Z,17.31
2017-08-10T03:48:06.180Z,17.23
2017-08-10T03:48:51.596Z,17.25
2017-08-10T03:49:51.622Z,17.23
2017-08-10T03:50:51.656Z,17.23
2017-08-10T03:51:51.376Z,17.28
2017-08-10T03:52:51.702Z,17.21
2017-08-10T03:54:51.438Z,17.19
2017-08-10T03:55:51.791Z,17.25
2017-08-10T03:56:51.779Z,17.25
2017-08-10T03:57:51.840Z,17.18
2017-08-10T03:58:51.850Z,17.16
2017-08-10T03:59:51.555Z,17.28
2017-08-10T04:00:51.899Z,17.21
2017-08-10T04:01:51.616Z,17.28
2017-08-10T04:02:51.632Z,17.25
2017-08-10T04:04:51.994Z,17.25
2017-08-10T04:05:52.021Z,17.25
2017-08-10T04:07:52.074Z,17.25
2017-08-10T04:08:52.095Z,17.3
2017-08-10T04:09:52.105Z,17.31
2017-08-10T04:11:52.153Z,17.37
2017-08-10T04:12:52.180Z,17.43
2017-08-10T04:13:52.215Z,17.36
2017-08-10T04:14:52.243Z,17.46
2017-08-10T04:15:52.260Z,17.58
2017-08-10T04:16:52.288Z,17.52
2017-08-10T04:17:52.311Z,17.48
2017-08-10T04:18:52.336Z,17.48
2017-08-10T04:20:06.656Z,17.56
2017-08-10T04:20:52.371Z,17.52
2017-08-10T04:21:52.100Z,17.54
2017-08-10T04:22:52.458Z,17.48
2017-08-10T04:23:52.137Z,17.46
2017-08-10T04:24:52.485Z,17.56
2017-08-10T04:25:52.513Z,17.44
2017-08-10T04:27:07.128Z,17.51
2017-08-10T04:27:52.539Z,17.36
2017-08-10T04:28:52.597Z,17.38
2017-08-10T04:29:52.601Z,17.54
2017-08-10T04:30:52.658Z,17.46
2017-08-10T04:31:52.350Z,17.38
2017-08-10T04:33:52.376Z,17.54
2017-08-10T04:35:52.743Z,17.55
2017-08-10T04:37:07.368Z,17.48
2017-08-10T04:37:52.795Z,17.54
2017-08-10T04:38:52.826Z,17.46
2017-08-10T04:39:52.854Z,17.37
2017-08-10T04:40:52.550Z,17.44
2017-08-10T04:41:52.896Z,17.37
2017-08-10T04:42:52.911Z,17.33
2017-08-10T04:43:52.956Z,17.34
2017-08-10T04:44:52.650Z,17.22
2017-08-10T04:45:52.998Z,17.3
2017-08-10T04:46:53.023Z,17.31
2017-08-10T04:47:53.028Z,17.28
2017-08-10T04:48:53.065Z,17.38
2017-08-10T04:50:07.683Z,17.41
2017-08-10T04:50:53.112Z,17.38
2017-08-10T04:51:53.119Z,17.51
2017-08-10T04:52:53.169Z,17.52
2017-08-10T04:53:53.184Z,17.56
2017-08-10T04:54:52.899Z,17.58
2017-08-10T04:55:53.229Z,17.56
2017-08-10T04:56:53.260Z,17.62
2017-08-10T04:57:53.282Z,17.7
2017-08-10T04:58:53.310Z,17.71
2017-08-10T04:59:53.324Z,17.66
2017-08-10T05:00:53.390Z,17.63
2017-08-10T05:01:53.361Z,17.7
2017-08-10T05:02:53.422Z,17.7
2017-08-10T05:04:53.458Z,17.64
2017-08-10T05:05:53.468Z,17.64
2017-08-10T05:07:53.537Z,17.81
2017-08-10T05:08:53.556Z,17.77
2017-08-10T05:09:53.585Z,17.79
2017-08-10T05:10:53.601Z,17.72
2017-08-10T05:11:53.625Z,17.77
2017-08-10T05:12:53.641Z,17.81
2017-08-10T05:13:53.665Z,17.82
2017-08-10T05:14:53.703Z,17.77
2017-08-10T05:15:53.746Z,17.82
2017-08-10T05:16:53.772Z,17.86
2017-08-10T05:17:53.447Z,17.87
2017-08-10T05:18:53.810Z,17.9
2017-08-10T05:19:53.813Z,17.93
2017-08-10T05:20:53.863Z,17.97
2017-08-10T05:21:53.876Z,17.92
2017-08-10T05:23:08.493Z,17.93
2017-08-10T05:23:53.613Z,17.95
2017-08-10T05:24:53.642Z,18.02
2017-08-10T05:25:53.960Z,17.97
2017-08-10T05:26:53.990Z,18.03
2017-08-10T05:27:54.011Z,17.99
2017-08-10T05:28:54.042Z,17.92
2017-08-10T05:29:54.067Z,17.93
2017-08-10T05:30:54.091Z,17.84
2017-08-10T05:31:54.094Z,17.82
2017-08-10T05:32:54.146Z,17.89
2017-08-10T05:33:54.167Z,17.84
2017-08-10T05:34:54.171Z,17.84
2017-08-10T05:35:53.908Z,17.79
2017-08-10T05:36:54.237Z,17.72
2017-08-10T05:37:53.960Z,17.77
2017-08-10T05:39:54.334Z,17.81
2017-08-10T05:40:54.322Z,17.82
2017-08-10T05:41:54.361Z,17.9
2017-08-10T05:42:54.382Z,17.99
2017-08-10T05:43:54.415Z,17.92
2017-08-10T05:44:54.129Z,18.02
2017-08-10T05:45:54.169Z,18.07
2017-08-10T05:46:54.465Z,18.08
2017-08-10T05:47:54.512Z,18.07
2017-08-10T05:48:54.531Z,18.11
2017-08-10T05:49:54.552Z,18.14
2017-08-10T05:50:54.587Z,18.18
2017-08-10T05:51:54.592Z,18.29
2017-08-10T05:52:54.632Z,18.32
2017-08-10T05:53:54.671Z,18.39
2017-08-10T05:55:09.280Z,18.42
2017-08-10T05:55:54.712Z,18.54
2017-08-10T05:56:54.407Z,18.58
2017-08-10T05:57:54.449Z,18.69
2017-08-10T05:58:54.776Z,18.98
2017-08-10T05:59:54.826Z,19.5
2017-08-10T06:00:54.828Z,19.94
2017-08-10T06:02:09.458Z,20.43
2017-08-10T06:02:54.874Z,20.7
2017-08-10T06:03:54.601Z,21.07
2017-08-10T06:04:54.612Z,21.37
2017-08-10T06:05:54.960Z,21.98
2017-08-10T06:06:54.979Z,22.28
2017-08-10T06:07:55.012Z,22.4
2017-08-10T06:09:09.650Z,22.09
2017-08-10T06:10:09.666Z,22.06
2017-08-10T06:11:09.687Z,21.88
2017-08-10T06:11:55.129Z,21.74
2017-08-10T06:12:55.141Z,21.4
2017-08-10T06:13:55.195Z,21.32
2017-08-10T06:14:55.191Z,21.25
2017-08-10T06:15:55.249Z,21.22
2017-08-10T06:16:54.936Z,21.12
2017-08-10T06:18:09.885Z,21.21
2017-08-10T06:18:55.292Z,21.29
2017-08-10T06:20:09.938Z,21.29
2017-08-10T06:20:55.519Z,21.14
2017-08-10T06:21:55.384Z,21.19
2017-08-10T06:23:10.165Z,21.32
2017-08-10T06:23:55.915Z,21.07
2017-08-10T06:24:55.779Z,20.89
2017-08-10T06:25:55.891Z,21.1
2017-08-10T06:26:55.832Z,21.22
2017-08-10T06:28:10.165Z,21.31
2017-08-10T06:28:55.598Z,21.34
2017-08-10T06:30:10.197Z,21.19
2017-08-10T06:30:55.642Z,21.13
2017-08-10T06:31:55.673Z,21.19
2017-08-10T06:32:55.674Z,21.44
2017-08-10T06:33:55.720Z,21.69
2017-08-10T06:34:55.422Z,22
2017-08-10T06:36:10.372Z,22.21
2017-08-10T06:37:10.393Z,22.24
2017-08-10T06:37:55.826Z,22.67
2017-08-10T06:38:55.863Z,23.5
2017-08-10T06:39:55.872Z,24.31
2017-08-10T06:40:55.913Z,25.27
2017-08-10T06:42:10.531Z,26.02
2017-08-10T06:42:55.976Z,26.7
2017-08-10T06:43:55.988Z,27.37
2017-08-10T06:45:10.633Z,27.55
2017-08-10T06:45:56.052Z,27.57
2017-08-10T06:46:56.094Z,27.36
2017-08-10T06:48:10.723Z,27.07
2017-08-10T06:49:10.752Z,26.84
2017-08-10T06:49:56.170Z,26.35
2017-08-10T06:50:56.226Z,25.25
2017-08-10T06:51:56.237Z,24.76
2017-08-10T06:52:55.959Z,24.62
2017-08-10T06:53:56.291Z,24.47
2017-08-10T06:54:56.037Z,24.21
2017-08-10T06:55:56.059Z,24.12
2017-08-10T06:56:56.383Z,23.78
2017-08-10T06:58:11.032Z,23.32
2017-08-10T06:59:56.477Z,22.22
2017-08-10T07:00:56.520Z,21.91
2017-08-10T07:02:56.576Z,21.54
2017-08-10T07:04:56.017Z,21.61
2017-08-10T07:05:56.651Z,21.84
2017-08-10T07:08:11.319Z,21.94
2017-08-10T07:08:56.441Z,22.17
2017-08-10T07:10:56.503Z,22.07
2017-08-10T07:11:56.505Z,21.94
2017-08-10T07:12:56.857Z,21.79
2017-08-10T07:14:11.481Z,21.68
2017-08-10T07:14:56.604Z,21.75
2017-08-10T07:15:56.944Z,21.9
2017-08-10T07:16:56.961Z,21.9
2017-08-10T07:17:56.688Z,21.83
2017-08-10T07:18:56.399Z,21.86
2017-08-10T07:19:56.749Z,21.83
2017-08-10T07:20:56.783Z,21.91
2017-08-10T07:21:57.108Z,21.82
2017-08-10T07:22:57.134Z,21.98
2017-08-10T07:24:56.870Z,22.09
2017-08-10T07:25:57.213Z,22.49
2017-08-10T07:26:57.245Z,23.04
2017-08-10T07:27:56.956Z,23.63
2017-08-10T07:28:57.295Z,23.79
2017-08-10T07:30:11.915Z,23.72
2017-08-10T07:30:57.045Z,23.85
2017-08-10T07:31:57.072Z,23.84
2017-08-10T07:33:57.427Z,23.88
2017-08-10T07:34:57.442Z,23.78
2017-08-10T07:35:57.492Z,23.9
2017-08-10T07:36:57.521Z,24.1
2017-08-10T07:38:57.564Z,24.2
2017-08-10T07:39:57.605Z,23.5
2017-08-10T07:40:57.625Z,23
2017-08-10T07:41:57.653Z,23.02
2017-08-10T07:42:57.681Z,23.7
2017-08-10T07:43:57.695Z,24.71
2017-08-10T07:45:12.343Z,25.43
2017-08-10T07:45:57.778Z,25.94
2017-08-10T07:46:57.787Z,26.54
2017-08-10T07:47:57.830Z,26.91
2017-08-10T07:48:57.842Z,26.76
2017-08-10T07:49:57.896Z,26.91
2017-08-10T07:50:57.903Z,26.51
2017-08-10T07:51:57.940Z,26.5
2017-08-10T07:52:57.972Z,26.62
2017-08-10T07:53:58.014Z,26.3
2017-08-10T07:54:58.028Z,25.7
2017-08-10T07:55:58.074Z,25.43
2017-08-10T07:56:58.097Z,25.2
2017-08-10T07:57:58.116Z,24.46
2017-08-10T07:58:58.153Z,24.18
2017-08-10T08:00:58.227Z,23.68
2017-08-10T08:01:58.237Z,23.76
2017-08-10T08:02:58.268Z,23.83
2017-08-10T08:03:58.287Z,23.84
2017-08-10T08:04:58.314Z,23.79
2017-08-10T08:05:58.362Z,23.73
2017-08-10T08:06:58.378Z,23.53
2017-08-10T08:07:58.394Z,23.54
2017-08-10T08:08:58.445Z,23.69
2017-08-10T08:09:58.476Z,23.75
2017-08-10T08:11:13.099Z,23.83
2017-08-10T08:11:58.527Z,23.65
2017-08-10T08:12:58.563Z,23.69
2017-08-10T08:13:58.586Z,23.83
2017-08-10T08:14:58.599Z,24
2017-08-10T08:15:58.639Z,24.1
2017-08-10T08:17:13.270Z,24.32
2017-08-10T08:17:58.702Z,24.12
2017-08-10T08:18:58.736Z,24.43
2017-08-10T08:19:58.756Z,24.58
2017-08-10T08:20:58.777Z,24.37
2017-08-10T08:21:58.811Z,24.45
2017-08-10T08:22:58.826Z,24.61
2017-08-10T08:23:58.865Z,24.55
2017-08-10T08:25:58.917Z,24.61
2017-08-10T08:26:58.964Z,24.93
2017-08-10T08:27:58.978Z,25.18
2017-08-10T08:28:59.009Z,25.4
2017-08-10T08:29:59.036Z,25.64
2017-08-10T08:30:59.062Z,25.62
2017-08-10T08:31:59.091Z,25.62
2017-08-10T08:33:13.407Z,25.5
2017-08-10T08:34:13.758Z,25.61
2017-08-10T08:34:59.171Z,25.64
2017-08-10T08:35:59.213Z,25.75
2017-08-10T08:36:59.240Z,25.45
2017-08-10T08:37:59.240Z,25.3
2017-08-10T08:39:59.039Z,25.28
2017-08-10T08:40:59.044Z,25.24
2017-08-10T08:41:59.063Z,25.2
2017-08-10T08:42:59.083Z,25.28
2017-08-10T08:43:59.125Z,25.35
2017-08-10T08:44:59.464Z,25.24
2017-08-10T08:46:13.780Z,24.98
2017-08-10T08:46:59.206Z,25.08
2017-08-10T08:47:59.234Z,25.09
2017-08-10T08:49:13.914Z,24.99
2017-08-10T08:49:59.609Z,24.93
2017-08-10T08:50:59.632Z,25.05
2017-08-10T08:52:14.248Z,24.71
2017-08-10T08:52:59.695Z,24.68
2017-08-10T08:53:59.714Z,24.69
2017-08-10T08:54:59.730Z,24.78
2017-08-10T08:55:59.777Z,24.58
2017-08-10T08:56:59.778Z,24.69
2017-08-10T08:57:59.836Z,24.84
2017-08-10T08:58:59.854Z,24.99
2017-08-10T08:59:59.567Z,24.98
2017-08-10T09:00:59.609Z,25.09
2017-08-10T09:01:59.638Z,25.09
2017-08-10T09:02:59.643Z,25.32
2017-08-10T09:03:59.997Z,25.57
2017-08-10T09:05:14.612Z,26.32
2017-08-10T09:06:00.058Z,26.65
2017-08-10T09:07:00.086Z,26.76
2017-08-10T09:08:00.123Z,26.55
2017-08-10T09:09:14.747Z,26.82
2017-08-10T09:09:59.856Z,26.7
2017-08-10T09:11:00.206Z,26.7
2017-08-10T09:12:00.234Z,26.67
2017-08-10T09:12:59.646Z,26.91
2017-08-10T09:14:00.286Z,27.27
2017-08-10T09:15:14.914Z,27.44
2017-08-10T09:16:00.331Z,27.67
2017-08-10T09:17:00.370Z,27.7
2017-08-10T09:18:00.418Z,27.99
2017-08-10T09:19:00.433Z,28.22
2017-08-10T09:20:15.065Z,28.15
2017-08-10T09:21:00.186Z,27.84
2017-08-10T09:22:00.527Z,27.75
2017-08-10T09:23:00.540Z,27.65
2017-08-10T09:24:00.596Z,27.7
2017-08-10T09:25:00.619Z,28.02
2017-08-10T09:26:00.338Z,28.58
2017-08-10T09:27:00.679Z,29.08
2017-08-10T09:28:00.408Z,29.27
2017-08-10T09:29:00.725Z,29.34
2017-08-10T09:30:00.778Z,29.45
2017-08-10T09:31:00.797Z,29.16
2017-08-10T09:32:00.872Z,29.41
2017-08-10T09:34:00.893Z,29.34
2017-08-10T09:35:00.607Z,29.37
2017-08-10T09:36:00.966Z,28.73
2017-08-10T09:37:00.990Z,29.14
2017-08-10T09:38:00.701Z,29.24
2017-08-10T09:39:01.048Z,29.46
2017-08-10T09:40:01.062Z,29.18
2017-08-10T09:41:01.106Z,29.64
2017-08-10T09:42:01.443Z,29.83
2017-08-10T09:43:01.178Z,29.95
2017-08-10T09:44:01.194Z,30.15
2017-08-10T09:45:01.233Z,30
2017-08-10T09:46:15.865Z,30.16
2017-08-10T09:47:01.300Z,30.15
2017-08-10T09:48:01.329Z,30.42
2017-08-10T09:49:01.365Z,29.8
2017-08-10T09:50:01.085Z,29.28
2017-08-10T09:51:01.407Z,29.27
2017-08-10T09:52:15.743Z,29.15
2017-08-10T09:53:01.488Z,28.95
2017-08-10T09:54:01.518Z,29.28
2017-08-10T09:56:01.588Z,29.98
2017-08-10T09:57:01.600Z,30.13
2017-08-10T09:58:01.659Z,30.24
2017-08-10T09:59:16.281Z,31.06
2017-08-10T10:00:01.715Z,31.54
2017-08-10T10:01:16.341Z,30.42
2017-08-10T10:02:01.479Z,30.46
2017-08-10T10:03:01.491Z,30.83
2017-08-10T10:05:16.166Z,29.58
2017-08-10T10:06:01.915Z,29.58
2017-08-10T10:07:01.625Z,29.78
2017-08-10T10:08:16.567Z,29.49
2017-08-10T10:09:02.013Z,29.33
2017-08-10T10:10:02.033Z,29.19
2017-08-10T10:11:02.065Z,29.09
2017-08-10T10:12:02.096Z,28.81
2017-08-10T10:13:01.824Z,28.36
2017-08-10T10:14:02.177Z,28.33
2017-08-10T10:15:02.184Z,28.59
2017-08-10T10:16:01.923Z,28.11
2017-08-10T10:17:02.254Z,27.57
2017-08-10T10:18:16.887Z,27.44
2017-08-10T10:19:02.316Z,27.4
2017-08-10T10:20:02.368Z,27.67
2017-08-10T10:21:02.380Z,28.03
2017-08-10T10:22:02.422Z,28.07
2017-08-10T10:23:02.126Z,28.24
2017-08-10T10:24:17.075Z,27.87
2017-08-10T10:25:02.485Z,27.31
2017-08-10T10:26:02.233Z,26.63
2017-08-10T10:27:02.574Z,26.6
2017-08-10T10:28:02.606Z,26.58
2017-08-10T10:29:02.624Z,26.5
2017-08-10T10:31:02.691Z,26.69
2017-08-10T10:32:02.410Z,26.67
2017-08-10T10:33:02.816Z,26.7
2017-08-10T10:34:02.779Z,26.81
2017-08-10T10:35:02.823Z,26.75
2017-08-10T10:36:02.837Z,26.6
2017-08-10T10:37:02.890Z,26.63
2017-08-10T10:38:02.912Z,26.6
2017-08-10T10:39:02.947Z,26.37
2017-08-10T10:40:17.555Z,26.45
2017-08-10T10:41:02.985Z,26.47
2017-08-10T10:42:03.027Z,26.63
2017-08-10T10:43:02.744Z,26.7
2017-08-10T10:44:17.687Z,26.75
2017-08-10T10:45:17.395Z,26.52
2017-08-10T10:46:02.844Z,26.47
2017-08-10T10:47:02.856Z,26.47
2017-08-10T10:48:02.582Z,26.44
2017-08-10T10:50:02.947Z,26.32
2017-08-10T10:51:02.986Z,26.4
2017-08-10T10:52:03.389Z,26.47
2017-08-10T10:53:03.355Z,26.37
2017-08-10T10:54:17.994Z,26.39
2017-08-10T10:55:17.710Z,26.55
2017-08-10T10:56:03.463Z,26.52
2017-08-10T10:57:03.476Z,26.54
2017-08-10T10:58:03.493Z,26.4
2017-08-10T10:59:03.536Z,26.4
2017-08-10T11:00:18.151Z,26.5
2017-08-10T11:01:02.977Z,26.62
2017-08-10T11:02:03.626Z,26.89
2017-08-10T11:03:03.667Z,27.12
2017-08-10T11:04:03.660Z,27.14
2017-08-10T11:05:18.308Z,27
2017-08-10T11:06:03.721Z,27.21
2017-08-10T11:08:03.793Z,26.66
2017-08-10T11:09:03.828Z,26.69
2017-08-10T11:10:03.873Z,26.45
2017-08-10T11:11:03.901Z,26.33
2017-08-10T11:12:03.912Z,26.47
2017-08-10T11:13:03.933Z,26.51
2017-08-10T11:14:03.977Z,26.36
2017-08-10T11:15:03.685Z,26.54
2017-08-10T11:16:04.042Z,26.57
2017-08-10T11:17:04.053Z,26.91
2017-08-10T11:18:18.697Z,27.03
2017-08-10T11:19:04.117Z,27.07
2017-08-10T11:20:04.136Z,27.03
2017-08-10T11:21:04.178Z,27.03
2017-08-10T11:22:03.898Z,26.76
2017-08-10T11:23:04.241Z,26.54
2017-08-10T11:24:04.261Z,26.35
2017-08-10T11:25:04.281Z,26.12
2017-08-10T11:26:04.019Z,26.07
2017-08-10T11:27:18.943Z,26.21
2017-08-10T11:28:04.376Z,26.33
2017-08-10T11:29:04.412Z,26.62
2017-08-10T11:30:03.819Z,26.82
2017-08-10T11:31:04.457Z,26.92
2017-08-10T11:32:04.503Z,26.92
2017-08-10T11:33:04.564Z,26.94
2017-08-10T11:35:04.589Z,26.97
2017-08-10T11:36:04.291Z,26.75
2017-08-10T11:37:04.643Z,26.55
2017-08-10T11:38:04.345Z,26.54
2017-08-10T11:39:04.704Z,26.7
2017-08-10T11:40:04.721Z,26.95
2017-08-10T11:41:04.764Z,27.02
2017-08-10T11:42:04.774Z,26.89
2017-08-10T11:43:19.471Z,26.77
2017-08-10T11:44:04.976Z,26.91
2017-08-10T11:45:04.561Z,27.1
2017-08-10T11:46:04.909Z,27.02
2017-08-10T11:47:04.939Z,27.03
2017-08-10T11:48:04.635Z,26.76
2017-08-10T11:49:04.681Z,26.73
2017-08-10T11:50:05.011Z,26.89
2017-08-10T11:51:05.052Z,26.81
2017-08-10T11:52:05.081Z,26.69
2017-08-10T11:53:04.800Z,26.67
2017-08-10T11:54:05.127Z,26.51
2017-08-10T11:55:04.828Z,26.62
2017-08-10T11:56:05.190Z,26.54
2017-08-10T11:57:19.806Z,26.66
2017-08-10T11:58:04.933Z,26.72
2017-08-10T11:59:19.860Z,26.94
2017-08-10T12:00:04.682Z,26.94
2017-08-10T12:01:05.312Z,26.94
2017-08-10T12:02:05.041Z,26.92
2017-08-10T12:03:05.070Z,26.82
2017-08-10T12:04:05.405Z,26.67
2017-08-10T12:05:05.507Z,26.5
2017-08-10T12:06:05.460Z,26.5
2017-08-10T12:07:05.195Z,26.58
2017-08-10T12:08:05.215Z,26.43
2017-08-10T12:09:05.549Z,26.43
2017-08-10T12:10:05.578Z,26.47
2017-08-10T12:11:05.610Z,26.57
2017-08-10T12:12:05.323Z,26.54
2017-08-10T12:13:05.713Z,26.52
2017-08-10T12:14:05.692Z,26.44
2017-08-10T12:15:20.324Z,26.47
2017-08-10T12:17:05.470Z,26.43
2017-08-10T12:18:05.184Z,26.52
2017-08-10T12:19:05.837Z,26.62
2017-08-10T12:20:05.862Z,26.75
2017-08-10T12:21:05.890Z,26.91
2017-08-10T12:22:05.622Z,27.12
2017-08-10T12:23:05.939Z,27.07
2017-08-10T12:24:05.678Z,27.09
2017-08-10T12:25:05.382Z,27
2017-08-10T12:26:20.633Z,26.91
2017-08-10T12:27:06.047Z,27.02
2017-08-10T12:28:20.704Z,27
2017-08-10T12:29:20.410Z,27.03
2017-08-10T12:30:20.746Z,26.94
2017-08-10T12:31:05.872Z,27
2017-08-10T12:33:06.216Z,26.62
2017-08-10T12:34:06.265Z,26.54
2017-08-10T12:35:06.306Z,26.57
2017-08-10T12:36:06.332Z,26.75
2017-08-10T12:37:06.048Z,26.84
2017-08-10T12:38:06.056Z,26.76
2017-08-10T12:39:06.102Z,26.73
2017-08-10T12:40:06.137Z,26.87
2017-08-10T12:41:06.165Z,26.73
2017-08-10T12:42:05.870Z,26.81
2017-08-10T12:43:21.132Z,26.89
2017-08-10T12:44:06.538Z,26.8
2017-08-10T12:45:06.592Z,26.92
2017-08-10T12:46:06.297Z,27.06
2017-08-10T12:47:06.627Z,27.22
2017-08-10T12:48:21.267Z,26.97
2017-08-10T12:49:06.685Z,26.95
2017-08-10T12:50:06.726Z,27
2017-08-10T12:51:06.729Z,27.03
2017-08-10T12:52:06.779Z,27.02
2017-08-10T12:53:06.796Z,27
2017-08-10T12:54:21.428Z,26.99
2017-08-10T12:55:06.543Z,27.1
2017-08-10T12:56:06.581Z,27.22
2017-08-10T12:58:06.958Z,27.27
2017-08-10T12:59:06.650Z,27.17
2017-08-10T13:00:06.689Z,27.19
2017-08-10T13:01:07.033Z,27.49
2017-08-10T13:02:21.667Z,27.29
2017-08-10T13:03:21.696Z,27.19
2017-08-10T13:04:07.101Z,27.1
2017-08-10T13:05:07.199Z,26.89
2017-08-10T13:06:07.165Z,26.91
2017-08-10T13:07:21.802Z,26.99
2017-08-10T13:08:07.215Z,27.13
2017-08-10T13:10:07.285Z,27.09
2017-08-10T13:12:07.340Z,27.1
2017-08-10T13:13:07.379Z,27.18
2017-08-10T13:14:07.406Z,27.17
2017-08-10T13:15:07.114Z,27.19
2017-08-10T13:16:07.465Z,27.12
2017-08-10T13:17:07.170Z,27.04
2017-08-10T13:18:21.807Z,26.95
2017-08-10T13:19:07.560Z,27.14
2017-08-10T13:20:07.568Z,27.25
2017-08-10T13:21:07.602Z,27.22
2017-08-10T13:22:07.628Z,27.19
2017-08-10T13:23:07.649Z,27.25
2017-08-10T13:24:07.365Z,27.14
2017-08-10T13:25:07.416Z,27.06
2017-08-10T13:26:22.340Z,27.18
2017-08-10T13:27:07.777Z,27.21
2017-08-10T13:28:07.497Z,27.06
2017-08-10T13:29:07.842Z,27.02
2017-08-10T13:30:07.572Z,27.02
2017-08-10T13:31:07.577Z,26.97
2017-08-10T13:32:07.603Z,27.21
2017-08-10T13:33:07.325Z,27.19
2017-08-10T13:34:22.556Z,27.13
2017-08-10T13:35:08.017Z,27.17
2017-08-10T13:37:07.435Z,27.02
2017-08-10T13:38:07.455Z,26.91
2017-08-10T13:39:08.109Z,26.99
2017-08-10T13:42:08.196Z,26.89